sensor_id;sensor_type;location;lat;lon;timestamp;P1;durP1;ratioP1;P2;durP2;ratioP2
24102;SDS011;12278;53.058;9.028;2023-08-01T00:01:23;4.93;;;4.43;;
24102;SDS011;12278;53.058;9.028;2023-08-01T00:05:23;5.45;;;4.45;;
24102;SDS011;12278;53.058;9.028;2023-08-01T00:09:24;4.85;;;4.45;;
24102;SDS011;12278;53.058;9.028;2023-08-01T00:13:25;4.82;;;4.40;;
24102;SDS011;12278;53.058;9.028;2023-08-01T00:17:25;4.97;;;4.47;;
24102;SDS011;12278;53.058;9.028;2023-08-01T00:21:26;4.78;;;4.35;;
24102;SDS011;12278;53.058;9.028;2023-08-01T00:25:27;7.00;;;4.57;;
24102;SDS011;12278;53.058;9.028;2023-08-01T00:49:30;5.25;;;4.75;;
24102;SDS011;12278;53.058;9.028;2023-08-01T00:53:31;6.18;;;4.97;;
24102;SDS011;12278;53.058;9.028;2023-08-01T00:57:32;7.20;;;5.60;;
24102;SDS011;12278;53.058;9.028;2023-08-01T01:01:34;7.05;;;5.45;;
24102;SDS011;12278;53.058;9.028;2023-08-01T01:05:36;7.22;;;5.72;;
24102;SDS011;12278;53.058;9.028;2023-08-01T01:09:39;6.78;;;6.18;;
24102;SDS011;12278;53.058;9.028;2023-08-01T01:13:39;7.75;;;5.78;;
24102;SDS011;12278;53.058;9.028;2023-08-01T01:17:40;6.32;;;5.68;;
24102;SDS011;12278;53.058;9.028;2023-08-01T01:21:41;8.63;;;6.40;;
24102;SDS011;12278;53.058;9.028;2023-08-01T01:25:43;6.65;;;5.95;;
24102;SDS011;12278;53.058;9.028;2023-08-01T01:29:45;8.90;;;6.13;;
24102;SDS011;12278;53.058;9.028;2023-08-01T01:33:48;6.97;;;5.80;;
24102;SDS011;12278;53.058;9.028;2023-08-01T01:37:49;8.32;;;6.15;;
24102;SDS011;12278;53.058;9.028;2023-08-01T01:41:50;6.75;;;6.05;;
24102;SDS011;12278;53.058;9.028;2023-08-01T01:45:51;8.70;;;5.15;;
24102;SDS011;12278;53.058;9.028;2023-08-01T01:49:51;6.75;;;5.85;;
24102;SDS011;12278;53.058;9.028;2023-08-01T01:53:52;7.75;;;6.68;;
24102;SDS011;12278;53.058;9.028;2023-08-01T01:57:53;6.28;;;5.60;;
24102;SDS011;12278;53.058;9.028;2023-08-01T02:01:53;8.63;;;6.20;;
24102;SDS011;12278;53.058;9.028;2023-08-01T02:05:54;6.70;;;6.00;;
24102;SDS011;12278;53.058;9.028;2023-08-01T02:09:54;7.80;;;6.03;;
24102;SDS011;12278;53.058;9.028;2023-08-01T02:13:55;7.90;;;5.60;;
24102;SDS011;12278;53.058;9.028;2023-08-01T02:17:56;12.45;;;5.18;;
24102;SDS011;12278;53.058;9.028;2023-08-01T02:21:58;7.05;;;5.65;;
24102;SDS011;12278;53.058;9.028;2023-08-01T02:25:58;6.55;;;5.85;;
24102;SDS011;12278;53.058;9.028;2023-08-01T02:29:59;8.20;;;5.75;;
24102;SDS011;12278;53.058;9.028;2023-08-01T02:34:00;7.90;;;6.05;;
24102;SDS011;12278;53.058;9.028;2023-08-01T02:38:01;10.25;;;6.25;;
24102;SDS011;12278;53.058;9.028;2023-08-01T02:42:03;8.55;;;6.20;;
24102;SDS011;12278;53.058;9.028;2023-08-01T02:46:03;9.30;;;5.90;;
24102;SDS011;12278;53.058;9.028;2023-08-01T02:50:05;7.45;;;6.15;;
24102;SDS011;12278;53.058;9.028;2023-08-01T02:54:07;8.83;;;5.60;;
24102;SDS011;12278;53.058;9.028;2023-08-01T02:58:08;8.32;;;6.40;;
24102;SDS011;12278;53.058;9.028;2023-08-01T03:02:09;9.13;;;5.72;;
24102;SDS011;12278;53.058;9.028;2023-08-01T03:06:09;11.00;;;6.07;;
24102;SDS011;12278;53.058;9.028;2023-08-01T03:10:10;8.77;;;6.50;;
24102;SDS011;12278;53.058;9.028;2023-08-01T03:14:13;8.35;;;6.10;;
24102;SDS011;12278;53.058;9.028;2023-08-01T03:18:14;8.70;;;6.30;;
24102;SDS011;12278;53.058;9.028;2023-08-01T03:22:14;9.20;;;6.90;;
24102;SDS011;12278;53.058;9.028;2023-08-01T03:26:15;9.70;;;6.75;;
24102;SDS011;12278;53.058;9.028;2023-08-01T03:30:18;10.07;;;7.47;;
24102;SDS011;12278;53.058;9.028;2023-08-01T03:34:19;8.70;;;6.80;;
24102;SDS011;12278;53.058;9.028;2023-08-01T03:38:19;11.32;;;7.38;;
24102;SDS011;12278;53.058;9.028;2023-08-01T03:42:20;9.38;;;6.55;;
24102;SDS011;12278;53.058;9.028;2023-08-01T03:46:20;9.52;;;7.47;;
24102;SDS011;12278;53.058;9.028;2023-08-01T03:50:21;8.93;;;6.63;;
24102;SDS011;12278;53.058;9.028;2023-08-01T03:54:22;8.63;;;7.05;;
24102;SDS011;12278;53.058;9.028;2023-08-01T03:58:22;11.95;;;6.72;;
24102;SDS011;12278;53.058;9.028;2023-08-01T04:02:23;11.35;;;7.03;;
24102;SDS011;12278;53.058;9.028;2023-08-01T04:06:23;12.27;;;8.35;;
24102;SDS011;12278;53.058;9.028;2023-08-01T04:10:24;10.57;;;7.45;;
24102;SDS011;12278;53.058;9.028;2023-08-01T04:14:25;10.93;;;7.97;;
24102;SDS011;12278;53.058;9.028;2023-08-01T04:18:25;8.57;;;6.82;;
24102;SDS011;12278;53.058;9.028;2023-08-01T04:22:26;11.52;;;7.63;;
24102;SDS011;12278;53.058;9.028;2023-08-01T04:26:27;12.07;;;7.68;;
24102;SDS011;12278;53.058;9.028;2023-08-01T04:30:27;13.25;;;7.35;;
24102;SDS011;12278;53.058;9.028;2023-08-01T04:34:28;12.32;;;8.25;;
24102;SDS011;12278;53.058;9.028;2023-08-01T04:38:28;11.90;;;8.20;;
24102;SDS011;12278;53.058;9.028;2023-08-01T04:42:29;16.42;;;9.20;;
24102;SDS011;12278;53.058;9.028;2023-08-01T04:46:30;13.95;;;8.70;;
24102;SDS011;12278;53.058;9.028;2023-08-01T04:50:30;14.13;;;9.57;;
24102;SDS011;12278;53.058;9.028;2023-08-01T04:54:31;21.63;;;10.43;;
24102;SDS011;12278;53.058;9.028;2023-08-01T04:58:32;15.60;;;10.73;;
24102;SDS011;12278;53.058;9.028;2023-08-01T05:02:32;13.80;;;10.50;;
24102;SDS011;12278;53.058;9.028;2023-08-01T05:06:33;14.98;;;10.98;;
24102;SDS011;12278;53.058;9.028;2023-08-01T05:10:34;12.35;;;9.88;;
24102;SDS011;12278;53.058;9.028;2023-08-01T05:14:34;17.05;;;11.02;;
24102;SDS011;12278;53.058;9.028;2023-08-01T05:18:35;12.55;;;9.70;;
24102;SDS011;12278;53.058;9.028;2023-08-01T05:22:35;9.70;;;6.82;;
24102;SDS011;12278;53.058;9.028;2023-08-01T05:26:36;8.27;;;4.53;;
24102;SDS011;12278;53.058;9.028;2023-08-01T05:30:37;5.68;;;3.90;;
24102;SDS011;12278;53.058;9.028;2023-08-01T05:34:38;8.32;;;3.90;;
24102;SDS011;12278;53.058;9.028;2023-08-01T05:38:38;7.18;;;4.25;;
24102;SDS011;12278;53.058;9.028;2023-08-01T05:42:39;7.22;;;4.80;;
24102;SDS011;12278;53.058;9.028;2023-08-01T05:46:40;7.22;;;4.43;;
24102;SDS011;12278;53.058;9.028;2023-08-01T05:50:40;6.90;;;4.05;;
24102;SDS011;12278;53.058;9.028;2023-08-01T05:54:41;6.65;;;4.50;;
24102;SDS011;12278;53.058;9.028;2023-08-01T05:58:41;6.47;;;4.57;;
24102;SDS011;12278;53.058;9.028;2023-08-01T06:02:42;7.45;;;4.60;;
24102;SDS011;12278;53.058;9.028;2023-08-01T06:06:43;4.75;;;4.22;;
24102;SDS011;12278;53.058;9.028;2023-08-01T06:10:44;6.32;;;5.25;;
24102;SDS011;12278;53.058;9.028;2023-08-01T06:14:44;8.98;;;4.60;;
24102;SDS011;12278;53.058;9.028;2023-08-01T06:18:46;5.85;;;4.63;;
24102;SDS011;12278;53.058;9.028;2023-08-01T06:22:46;7.57;;;5.20;;
24102;SDS011;12278;53.058;9.028;2023-08-01T06:26:47;8.05;;;5.53;;
24102;SDS011;12278;53.058;9.028;2023-08-01T06:30:48;7.22;;;5.85;;
24102;SDS011;12278;53.058;9.028;2023-08-01T06:34:48;10.63;;;7.57;;
24102;SDS011;12278;53.058;9.028;2023-08-01T06:38:49;8.90;;;8.00;;
24102;SDS011;12278;53.058;9.028;2023-08-01T06:42:49;10.23;;;8.38;;
24102;SDS011;12278;53.058;9.028;2023-08-01T06:46:50;16.52;;;10.38;;
24102;SDS011;12278;53.058;9.028;2023-08-01T06:50:51;10.45;;;8.30;;
24102;SDS011;12278;53.058;9.028;2023-08-01T06:54:51;13.55;;;9.27;;
24102;SDS011;12278;53.058;9.028;2023-08-01T06:58:52;14.30;;;9.98;;
24102;SDS011;12278;53.058;9.028;2023-08-01T07:02:53;11.35;;;7.63;;
24102;SDS011;12278;53.058;9.028;2023-08-01T07:06:53;13.85;;;8.50;;
24102;SDS011;12278;53.058;9.028;2023-08-01T07:10:54;13.80;;;8.18;;
24102;SDS011;12278;53.058;9.028;2023-08-01T07:14:54;13.77;;;8.95;;
24102;SDS011;12278;53.058;9.028;2023-08-01T07:18:55;11.40;;;7.30;;
24102;SDS011;12278;53.058;9.028;2023-08-01T07:22:56;8.15;;;6.32;;
24102;SDS011;12278;53.058;9.028;2023-08-01T07:26:57;9.48;;;6.03;;
24102;SDS011;12278;53.058;9.028;2023-08-01T07:31:01;6.07;;;4.90;;
24102;SDS011;12278;53.058;9.028;2023-08-01T07:35:07;4.97;;;4.40;;
24102;SDS011;12278;53.058;9.028;2023-08-01T07:39:08;7.22;;;4.50;;
24102;SDS011;12278;53.058;9.028;2023-08-01T07:43:09;4.88;;;4.32;;
24102;SDS011;12278;53.058;9.028;2023-08-01T07:47:09;4.55;;;3.25;;
24102;SDS011;12278;53.058;9.028;2023-08-01T07:51:10;4.55;;;2.70;;
24102;SDS011;12278;53.058;9.028;2023-08-01T07:55:11;7.13;;;3.13;;
24102;SDS011;12278;53.058;9.028;2023-08-01T07:59:12;3.20;;;2.30;;
24102;SDS011;12278;53.058;9.028;2023-08-01T08:03:12;4.35;;;1.98;;
24102;SDS011;12278;53.058;9.028;2023-08-01T08:07:16;2.50;;;2.03;;
24102;SDS011;12278;53.058;9.028;2023-08-01T08:11:16;2.03;;;1.70;;
24102;SDS011;12278;53.058;9.028;2023-08-01T08:15:17;1.75;;;1.65;;
24102;SDS011;12278;53.058;9.028;2023-08-01T08:19:19;5.95;;;1.92;;
24102;SDS011;12278;53.058;9.028;2023-08-01T08:23:20;2.45;;;1.75;;
24102;SDS011;12278;53.058;9.028;2023-08-01T08:27:20;3.25;;;1.90;;
24102;SDS011;12278;53.058;9.028;2023-08-01T08:31:21;3.58;;;2.45;;
24102;SDS011;12278;53.058;9.028;2023-08-01T08:35:21;2.45;;;2.08;;
24102;SDS011;12278;53.058;9.028;2023-08-01T08:39:22;3.08;;;2.10;;
24102;SDS011;12278;53.058;9.028;2023-08-01T08:43:23;3.40;;;2.35;;
24102;SDS011;12278;53.058;9.028;2023-08-01T08:47:25;9.75;;;2.20;;
24102;SDS011;12278;53.058;9.028;2023-08-01T08:51:27;2.55;;;2.05;;
24102;SDS011;12278;53.058;9.028;2023-08-01T08:55:28;3.53;;;1.67;;
24102;SDS011;12278;53.058;9.028;2023-08-01T08:59:31;3.60;;;1.80;;
24102;SDS011;12278;53.058;9.028;2023-08-01T09:03:32;2.17;;;1.98;;
24102;SDS011;12278;53.058;9.028;2023-08-01T09:07:33;2.25;;;1.63;;
24102;SDS011;12278;53.058;9.028;2023-08-01T09:11:40;2.88;;;1.90;;
24102;SDS011;12278;53.058;9.028;2023-08-01T09:15:43;2.17;;;1.60;;
24102;SDS011;12278;53.058;9.028;2023-08-01T09:19:46;2.78;;;1.73;;
24102;SDS011;12278;53.058;9.028;2023-08-01T09:23:47;3.08;;;1.88;;
24102;SDS011;12278;53.058;9.028;2023-08-01T09:27:48;2.15;;;1.60;;
24102;SDS011;12278;53.058;9.028;2023-08-01T09:31:49;2.97;;;1.23;;
24102;SDS011;12278;53.058;9.028;2023-08-01T09:35:50;1.55;;;1.27;;
24102;SDS011;12278;53.058;9.028;2023-08-01T09:39:55;2.72;;;1.45;;
24102;SDS011;12278;53.058;9.028;2023-08-01T09:43:56;3.75;;;1.30;;
24102;SDS011;12278;53.058;9.028;2023-08-01T09:47:56;1.90;;;1.65;;
24102;SDS011;12278;53.058;9.028;2023-08-01T09:51:57;2.55;;;1.20;;
24102;SDS011;12278;53.058;9.028;2023-08-01T09:56:00;1.50;;;1.15;;
24102;SDS011;12278;53.058;9.028;2023-08-01T10:00:04;1.98;;;1.02;;
24102;SDS011;12278;53.058;9.028;2023-08-01T10:04:05;1.42;;;1.00;;
24102;SDS011;12278;53.058;9.028;2023-08-01T10:08:09;4.40;;;0.95;;
24102;SDS011;12278;53.058;9.028;2023-08-01T10:12:12;1.55;;;1.20;;
24102;SDS011;12278;53.058;9.028;2023-08-01T10:16:16;3.00;;;1.42;;
24102;SDS011;12278;53.058;9.028;2023-08-01T10:20:17;1.50;;;1.40;;
24102;SDS011;12278;53.058;9.028;2023-08-01T10:24:20;4.00;;;2.10;;
24102;SDS011;12278;53.058;9.028;2023-08-01T10:28:35;2.15;;;1.50;;
24102;SDS011;12278;53.058;9.028;2023-08-01T10:32:39;1.88;;;1.48;;
24102;SDS011;12278;53.058;9.028;2023-08-01T10:36:53;2.55;;;1.90;;
24102;SDS011;12278;53.058;9.028;2023-08-01T10:40:55;2.97;;;1.40;;
24102;SDS011;12278;53.058;9.028;2023-08-01T10:44:57;1.92;;;0.90;;
24102;SDS011;12278;53.058;9.028;2023-08-01T10:48:58;3.63;;;1.77;;
24102;SDS011;12278;53.058;9.028;2023-08-01T10:53:04;1.70;;;1.17;;
24102;SDS011;12278;53.058;9.028;2023-08-01T10:57:06;1.00;;;0.90;;
24102;SDS011;12278;53.058;9.028;2023-08-01T11:01:08;1.38;;;1.05;;
24102;SDS011;12278;53.058;9.028;2023-08-01T11:05:13;1.60;;;1.45;;
24102;SDS011;12278;53.058;9.028;2023-08-01T11:09:23;1.38;;;1.27;;
24102;SDS011;12278;53.058;9.028;2023-08-01T11:13:28;1.55;;;1.30;;
24102;SDS011;12278;53.058;9.028;2023-08-01T11:17:29;0.90;;;0.88;;
24102;SDS011;12278;53.058;9.028;2023-08-01T11:21:31;1.73;;;0.95;;
24102;SDS011;12278;53.058;9.028;2023-08-01T11:25:41;1.30;;;0.70;;
24102;SDS011;12278;53.058;9.028;2023-08-01T11:29:43;0.68;;;0.68;;
24102;SDS011;12278;53.058;9.028;2023-08-01T11:33:54;3.28;;;0.73;;
24102;SDS011;12278;53.058;9.028;2023-08-01T11:37:56;1.77;;;0.75;;
24102;SDS011;12278;53.058;9.028;2023-08-01T11:41:58;0.80;;;0.73;;
24102;SDS011;12278;53.058;9.028;2023-08-01T11:46:00;2.33;;;1.10;;
24102;SDS011;12278;53.058;9.028;2023-08-01T11:50:03;0.57;;;0.55;;
24102;SDS011;12278;53.058;9.028;2023-08-01T11:54:05;4.15;;;1.08;;
24102;SDS011;12278;53.058;9.028;2023-08-01T11:58:07;1.45;;;1.08;;
24102;SDS011;12278;53.058;9.028;2023-08-01T12:02:09;1.88;;;0.93;;
24102;SDS011;12278;53.058;9.028;2023-08-01T12:06:10;0.57;;;0.57;;
24102;SDS011;12278;53.058;9.028;2023-08-01T12:10:13;4.40;;;0.98;;
24102;SDS011;12278;53.058;9.028;2023-08-01T12:14:15;2.42;;;1.25;;
24102;SDS011;12278;53.058;9.028;2023-08-01T12:18:26;0.90;;;0.75;;
24102;SDS011;12278;53.058;9.028;2023-08-01T12:22:28;2.35;;;1.02;;
24102;SDS011;12278;53.058;9.028;2023-08-01T12:26:29;2.58;;;1.23;;
24102;SDS011;12278;53.058;9.028;2023-08-01T12:30:31;1.77;;;1.25;;
24102;SDS011;12278;53.058;9.028;2023-08-01T12:34:32;2.63;;;1.08;;
24102;SDS011;12278;53.058;9.028;2023-08-01T12:38:33;1.35;;;0.90;;
24102;SDS011;12278;53.058;9.028;2023-08-01T12:42:34;1.63;;;1.10;;
24102;SDS011;12278;53.058;9.028;2023-08-01T12:46:35;1.85;;;1.00;;
24102;SDS011;12278;53.058;9.028;2023-08-01T12:50:35;3.70;;;1.15;;
24102;SDS011;12278;53.058;9.028;2023-08-01T12:54:36;2.67;;;1.33;;
24102;SDS011;12278;53.058;9.028;2023-08-01T12:58:36;2.47;;;1.38;;
24102;SDS011;12278;53.058;9.028;2023-08-01T13:02:37;1.38;;;1.20;;
24102;SDS011;12278;53.058;9.028;2023-08-01T13:06:38;2.85;;;1.35;;
24102;SDS011;12278;53.058;9.028;2023-08-01T13:10:38;4.15;;;1.48;;
24102;SDS011;12278;53.058;9.028;2023-08-01T13:14:39;1.90;;;1.25;;
24102;SDS011;12278;53.058;9.028;2023-08-01T13:18:40;3.17;;;1.23;;
24102;SDS011;12278;53.058;9.028;2023-08-01T13:22:45;0.93;;;0.88;;
24102;SDS011;12278;53.058;9.028;2023-08-01T13:26:46;1.00;;;0.90;;
24102;SDS011;12278;53.058;9.028;2023-08-01T13:30:47;7.10;;;1.80;;
24102;SDS011;12278;53.058;9.028;2023-08-01T13:34:48;2.53;;;1.50;;
24102;SDS011;12278;53.058;9.028;2023-08-01T13:38:48;1.80;;;1.25;;
24102;SDS011;12278;53.058;9.028;2023-08-01T13:42:49;1.65;;;1.10;;
24102;SDS011;12278;53.058;9.028;2023-08-01T13:46:50;2.80;;;1.35;;
24102;SDS011;12278;53.058;9.028;2023-08-01T13:50:52;2.97;;;1.17;;
24102;SDS011;12278;53.058;9.028;2023-08-01T13:54:54;1.70;;;0.70;;
24102;SDS011;12278;53.058;9.028;2023-08-01T13:58:55;2.28;;;1.05;;
24102;SDS011;12278;53.058;9.028;2023-08-01T14:02:57;3.55;;;1.10;;
24102;SDS011;12278;53.058;9.028;2023-08-01T14:06:59;2.05;;;0.85;;
24102;SDS011;12278;53.058;9.028;2023-08-01T14:11:03;1.55;;;1.45;;
24102;SDS011;12278;53.058;9.028;2023-08-01T14:15:06;1.23;;;0.90;;
24102;SDS011;12278;53.058;9.028;2023-08-01T14:19:08;2.17;;;1.20;;
24102;SDS011;12278;53.058;9.028;2023-08-01T14:23:10;2.83;;;0.95;;
24102;SDS011;12278;53.058;9.028;2023-08-01T14:27:11;2.83;;;1.55;;
24102;SDS011;12278;53.058;9.028;2023-08-01T14:31:11;1.88;;;0.95;;
24102;SDS011;12278;53.058;9.028;2023-08-01T14:35:14;2.92;;;1.40;;
24102;SDS011;12278;53.058;9.028;2023-08-01T14:39:15;1.73;;;1.33;;
24102;SDS011;12278;53.058;9.028;2023-08-01T14:43:16;1.38;;;0.90;;
24102;SDS011;12278;53.058;9.028;2023-08-01T14:47:18;3.63;;;1.13;;
24102;SDS011;12278;53.058;9.028;2023-08-01T14:51:19;4.57;;;1.58;;
24102;SDS011;12278;53.058;9.028;2023-08-01T14:55:21;2.30;;;1.20;;
24102;SDS011;12278;53.058;9.028;2023-08-01T14:59:23;2.40;;;1.40;;
24102;SDS011;12278;53.058;9.028;2023-08-01T15:03:24;3.40;;;1.20;;
24102;SDS011;12278;53.058;9.028;2023-08-01T15:07:26;1.60;;;1.10;;
24102;SDS011;12278;53.058;9.028;2023-08-01T15:11:29;1.05;;;0.80;;
24102;SDS011;12278;53.058;9.028;2023-08-01T15:15:35;3.50;;;1.08;;
24102;SDS011;12278;53.058;9.028;2023-08-01T15:19:37;2.40;;;1.05;;
24102;SDS011;12278;53.058;9.028;2023-08-01T15:23:38;4.97;;;1.52;;
24102;SDS011;12278;53.058;9.028;2023-08-01T15:27:39;3.88;;;1.60;;
24102;SDS011;12278;53.058;9.028;2023-08-01T15:31:41;3.00;;;1.10;;
24102;SDS011;12278;53.058;9.028;2023-08-01T15:35:43;2.53;;;1.30;;
24102;SDS011;12278;53.058;9.028;2023-08-01T15:39:44;3.92;;;1.48;;
24102;SDS011;12278;53.058;9.028;2023-08-01T15:43:45;2.58;;;1.90;;
24102;SDS011;12278;53.058;9.028;2023-08-01T15:47:47;3.33;;;1.45;;
24102;SDS011;12278;53.058;9.028;2023-08-01T15:51:48;2.13;;;1.30;;
24102;SDS011;12278;53.058;9.028;2023-08-01T15:55:56;1.75;;;1.02;;
24102;SDS011;12278;53.058;9.028;2023-08-01T15:59:59;2.25;;;1.20;;
24102;SDS011;12278;53.058;9.028;2023-08-01T16:04:01;3.50;;;2.05;;
24102;SDS011;12278;53.058;9.028;2023-08-01T16:08:03;2.70;;;1.30;;
24102;SDS011;12278;53.058;9.028;2023-08-01T16:12:05;2.03;;;1.48;;
24102;SDS011;12278;53.058;9.028;2023-08-01T16:16:07;2.83;;;1.13;;
24102;SDS011;12278;53.058;9.028;2023-08-01T16:20:08;1.45;;;1.10;;
24102;SDS011;12278;53.058;9.028;2023-08-01T16:24:10;1.83;;;0.90;;
24102;SDS011;12278;53.058;9.028;2023-08-01T16:28:11;2.35;;;1.00;;
24102;SDS011;12278;53.058;9.028;2023-08-01T16:32:12;3.17;;;1.25;;
24102;SDS011;12278;53.058;9.028;2023-08-01T16:36:12;2.83;;;1.40;;
24102;SDS011;12278;53.058;9.028;2023-08-01T16:40:13;2.38;;;1.40;;
24102;SDS011;12278;53.058;9.028;2023-08-01T16:44:14;2.78;;;1.30;;
24102;SDS011;12278;53.058;9.028;2023-08-01T16:48:14;2.40;;;1.48;;
24102;SDS011;12278;53.058;9.028;2023-08-01T16:52:15;3.55;;;1.60;;
24102;SDS011;12278;53.058;9.028;2023-08-01T16:56:16;3.85;;;1.58;;
24102;SDS011;12278;53.058;9.028;2023-08-01T17:00:17;3.33;;;1.55;;
24102;SDS011;12278;53.058;9.028;2023-08-01T17:04:18;3.75;;;1.98;;
24102;SDS011;12278;53.058;9.028;2023-08-01T17:08:19;2.28;;;1.25;;
24102;SDS011;12278;53.058;9.028;2023-08-01T17:12:19;3.00;;;1.90;;
24102;SDS011;12278;53.058;9.028;2023-08-01T17:16:21;4.22;;;1.70;;
24102;SDS011;12278;53.058;9.028;2023-08-01T17:20:22;2.22;;;1.75;;
24102;SDS011;12278;53.058;9.028;2023-08-01T17:24:23;1.60;;;1.30;;
24102;SDS011;12278;53.058;9.028;2023-08-01T17:28:24;4.05;;;2.35;;
24102;SDS011;12278;53.058;9.028;2023-08-01T17:32:24;3.58;;;1.70;;
24102;SDS011;12278;53.058;9.028;2023-08-01T17:36:25;4.45;;;1.58;;
24102;SDS011;12278;53.058;9.028;2023-08-01T17:40:26;3.50;;;1.40;;
24102;SDS011;12278;53.058;9.028;2023-08-01T17:44:26;2.22;;;1.27;;
24102;SDS011;12278;53.058;9.028;2023-08-01T17:48:27;2.00;;;1.23;;
24102;SDS011;12278;53.058;9.028;2023-08-01T17:52:28;2.38;;;1.27;;
24102;SDS011;12278;53.058;9.028;2023-08-01T17:56:29;5.03;;;1.42;;
24102;SDS011;12278;53.058;9.028;2023-08-01T18:00:29;1.75;;;1.25;;
24102;SDS011;12278;53.058;9.028;2023-08-01T18:04:30;2.00;;;1.20;;
24102;SDS011;12278;53.058;9.028;2023-08-01T18:08:31;2.75;;;1.88;;
24102;SDS011;12278;53.058;9.028;2023-08-01T18:12:32;1.73;;;1.17;;
24102;SDS011;12278;53.058;9.028;2023-08-01T18:16:32;1.38;;;1.27;;
24102;SDS011;12278;53.058;9.028;2023-08-01T18:20:33;1.60;;;1.20;;
24102;SDS011;12278;53.058;9.028;2023-08-01T18:24:34;1.58;;;1.00;;
24102;SDS011;12278;53.058;9.028;2023-08-01T18:28:35;1.63;;;1.50;;
24102;SDS011;12278;53.058;9.028;2023-08-01T18:32:35;3.78;;;1.13;;
24102;SDS011;12278;53.058;9.028;2023-08-01T18:36:36;1.38;;;1.27;;
24102;SDS011;12278;53.058;9.028;2023-08-01T18:40:37;2.25;;;1.20;;
24102;SDS011;12278;53.058;9.028;2023-08-01T18:44:38;2.10;;;1.10;;
24102;SDS011;12278;53.058;9.028;2023-08-01T18:48:39;1.17;;;1.08;;
24102;SDS011;12278;53.058;9.028;2023-08-01T18:52:40;1.70;;;1.08;;
24102;SDS011;12278;53.058;9.028;2023-08-01T18:56:41;1.45;;;1.00;;
24102;SDS011;12278;53.058;9.028;2023-08-01T19:00:42;3.05;;;1.58;;
24102;SDS011;12278;53.058;9.028;2023-08-01T19:04:42;3.17;;;1.38;;
24102;SDS011;12278;53.058;9.028;2023-08-01T19:08:45;1.40;;;0.93;;
24102;SDS011;12278;53.058;9.028;2023-08-01T19:12:46;1.20;;;1.00;;
24102;SDS011;12278;53.058;9.028;2023-08-01T19:16:46;1.90;;;1.10;;
24102;SDS011;12278;53.058;9.028;2023-08-01T19:20:47;1.10;;;0.85;;
24102;SDS011;12278;53.058;9.028;2023-08-01T19:24:50;2.90;;;1.30;;
24102;SDS011;12278;53.058;9.028;2023-08-01T19:28:52;1.45;;;1.27;;
24102;SDS011;12278;53.058;9.028;2023-08-01T19:32:54;1.85;;;0.90;;
24102;SDS011;12278;53.058;9.028;2023-08-01T19:36:54;2.08;;;1.30;;
24102;SDS011;12278;53.058;9.028;2023-08-01T19:40:58;2.85;;;1.13;;
24102;SDS011;12278;53.058;9.028;2023-08-01T19:44:59;3.22;;;1.90;;
24102;SDS011;12278;53.058;9.028;2023-08-01T19:49:00;1.40;;;1.27;;
24102;SDS011;12278;53.058;9.028;2023-08-01T19:53:01;5.57;;;1.45;;
24102;SDS011;12278;53.058;9.028;2023-08-01T19:57:02;2.03;;;1.45;;
24102;SDS011;12278;53.058;9.028;2023-08-01T20:01:03;2.53;;;1.23;;
24102;SDS011;12278;53.058;9.028;2023-08-01T20:05:07;1.70;;;1.50;;
24102;SDS011;12278;53.058;9.028;2023-08-01T20:09:08;2.72;;;1.70;;
24102;SDS011;12278;53.058;9.028;2023-08-01T20:13:09;2.40;;;1.70;;
24102;SDS011;12278;53.058;9.028;2023-08-01T20:17:09;2.15;;;1.60;;
24102;SDS011;12278;53.058;9.028;2023-08-01T20:21:11;3.13;;;1.52;;
24102;SDS011;12278;53.058;9.028;2023-08-01T20:25:11;1.38;;;1.27;;
24102;SDS011;12278;53.058;9.028;2023-08-01T20:29:12;2.55;;;1.60;;
24102;SDS011;12278;53.058;9.028;2023-08-01T20:33:14;3.58;;;1.50;;
24102;SDS011;12278;53.058;9.028;2023-08-01T20:37:15;1.52;;;1.35;;
24102;SDS011;12278;53.058;9.028;2023-08-01T20:41:16;2.35;;;1.83;;
24102;SDS011;12278;53.058;9.028;2023-08-01T20:45:17;1.58;;;1.50;;
24102;SDS011;12278;53.058;9.028;2023-08-01T20:49:18;2.35;;;1.73;;
24102;SDS011;12278;53.058;9.028;2023-08-01T20:53:19;3.60;;;1.70;;
24102;SDS011;12278;53.058;9.028;2023-08-01T20:57:19;3.97;;;1.70;;
24102;SDS011;12278;53.058;9.028;2023-08-01T21:01:20;3.33;;;1.80;;
24102;SDS011;12278;53.058;9.028;2023-08-01T21:05:21;3.72;;;1.92;;
24102;SDS011;12278;53.058;9.028;2023-08-01T21:09:21;2.75;;;2.38;;
24102;SDS011;12278;53.058;9.028;2023-08-01T21:13:22;2.40;;;1.92;;
24102;SDS011;12278;53.058;9.028;2023-08-01T21:17:22;2.53;;;1.95;;
24102;SDS011;12278;53.058;9.028;2023-08-01T21:21:23;5.18;;;2.10;;
24102;SDS011;12278;53.058;9.028;2023-08-01T21:25:24;5.13;;;2.42;;
24102;SDS011;12278;53.058;9.028;2023-08-01T21:29:25;6.05;;;2.78;;
24102;SDS011;12278;53.058;9.028;2023-08-01T21:33:26;4.68;;;2.35;;
24102;SDS011;12278;53.058;9.028;2023-08-01T21:37:26;3.53;;;2.30;;
24102;SDS011;12278;53.058;9.028;2023-08-01T21:41:27;5.00;;;2.13;;
24102;SDS011;12278;53.058;9.028;2023-08-01T21:45:28;2.30;;;2.10;;
24102;SDS011;12278;53.058;9.028;2023-08-01T21:49:28;2.28;;;1.70;;
24102;SDS011;12278;53.058;9.028;2023-08-01T21:53:29;2.45;;;1.85;;
24102;SDS011;12278;53.058;9.028;2023-08-01T21:57:30;3.08;;;1.98;;
24102;SDS011;12278;53.058;9.028;2023-08-01T22:01:31;3.00;;;2.10;;
24102;SDS011;12278;53.058;9.028;2023-08-01T22:05:32;4.07;;;2.03;;
24102;SDS011;12278;53.058;9.028;2023-08-01T22:09:32;4.75;;;2.50;;
24102;SDS011;12278;53.058;9.028;2023-08-01T22:13:33;2.95;;;1.80;;
24102;SDS011;12278;53.058;9.028;2023-08-01T22:17:34;2.38;;;2.17;;
24102;SDS011;12278;53.058;9.028;2023-08-01T22:21:40;3.47;;;2.30;;
24102;SDS011;12278;53.058;9.028;2023-08-01T22:25:41;3.80;;;2.00;;
24102;SDS011;12278;53.058;9.028;2023-08-01T22:29:42;3.30;;;1.88;;
24102;SDS011;12278;53.058;9.028;2023-08-01T22:33:42;5.90;;;2.35;;
24102;SDS011;12278;53.058;9.028;2023-08-01T22:37:43;2.60;;;2.40;;
24102;SDS011;12278;53.058;9.028;2023-08-01T22:41:44;3.40;;;2.10;;
24102;SDS011;12278;53.058;9.028;2023-08-01T22:45:44;3.05;;;2.28;;
24102;SDS011;12278;53.058;9.028;2023-08-01T22:49:45;4.82;;;2.05;;
24102;SDS011;12278;53.058;9.028;2023-08-01T22:53:46;4.70;;;2.47;;
24102;SDS011;12278;53.058;9.028;2023-08-01T22:57:48;4.05;;;2.30;;
24102;SDS011;12278;53.058;9.028;2023-08-01T23:01:48;3.40;;;2.20;;
24102;SDS011;12278;53.058;9.028;2023-08-01T23:05:49;2.53;;;2.17;;
24102;SDS011;12278;53.058;9.028;2023-08-01T23:09:50;4.68;;;2.50;;
24102;SDS011;12278;53.058;9.028;2023-08-01T23:13:53;3.05;;;2.50;;
24102;SDS011;12278;53.058;9.028;2023-08-01T23:17:54;5.97;;;2.28;;
24102;SDS011;12278;53.058;9.028;2023-08-01T23:21:54;2.85;;;2.53;;
24102;SDS011;12278;53.058;9.028;2023-08-01T23:30:05;4.75;;;2.65;;
24102;SDS011;12278;53.058;9.028;2023-08-01T23:34:07;5.20;;;2.80;;
24102;SDS011;12278;53.058;9.028;2023-08-01T23:38:07;5.65;;;2.30;;
24102;SDS011;12278;53.058;9.028;2023-08-01T23:42:08;2.95;;;2.67;;
24102;SDS011;12278;53.058;9.028;2023-08-01T23:46:08;3.17;;;2.38;;
24102;SDS011;12278;53.058;9.028;2023-08-01T23:50:09;6.53;;;2.53;;
24102;SDS011;12278;53.058;9.028;2023-08-01T23:54:10;3.50;;;2.25;;
24102;SDS011;12278;53.058;9.028;2023-08-01T23:58:10;7.10;;;2.33;;
